Time;durP1;ratioP1;P1;durP2;ratioP2;P2;SDS_P1;SDS_P2;PMS_P1;PMS_P2;Temp;Humidity;BMP_temperature;BMP_pressure;BME280_temperature;BME280_humidity;BME280_pressure;Samples;Min_cycle;Max_cycle;Signal;HPM_P1;HPM_P2
2021/10/25 00:02:13;;;;;;;30.77;20.15;;;23.70;97.40;;;;;;1891138;73;21176;-74
2021/10/25 00:04:45;;;;;;;24.02;18.77;;;23.80;97.20;;;;;;1884594;73;21090;-76
2021/10/25 00:07:16;;;;;;;18.50;12.28;;;23.80;97.20;;;;;;1945137;70;21248;-75
2021/10/25 00:09:47;;;;;;;18.32;13.20;;;23.80;97.10;;;;;;1927352;72;21170;-75
2021/10/25 00:12:19;;;;;;;16.87;12.68;;;23.80;97.00;;;;;;1941668;71;21153;-74
2021/10/25 00:14:50;;;;;;;19.15;12.20;;;23.80;96.60;;;;;;1916812;71;21150;-75
2021/10/25 00:17:22;;;;;;;14.13;10.40;;;23.80;96.60;;;;;;1868762;72;21265;-76
2021/10/25 00:19:53;;;;;;;16.27;12.28;;;23.80;96.30;;;;;;1891836;73;21157;-75
2021/10/25 00:22:25;;;;;;;18.92;12.30;;;23.80;96.50;;;;;;1892021;73;21743;-75
2021/10/25 00:24:56;;;;;;;13.22;11.12;;;23.80;96.40;;;;;;1907084;73;21640;-75
2021/10/25 00:27:27;;;;;;;14.40;10.98;;;23.90;96.40;;;;;;1873545;75;21159;-75
2021/10/25 00:29:58;;;;;;;15.98;10.68;;;23.90;96.10;;;;;;1861733;74;21166;-74
2021/10/25 00:32:29;;;;;;;13.25;10.32;;;23.90;96.10;;;;;;1891718;73;21075;-75
2021/10/25 00:35:00;;;;;;;15.03;10.15;;;23.90;95.90;;;;;;1912940;72;21641;-75
2021/10/25 00:37:31;;;;;;;13.45;10.20;;;23.90;95.70;;;;;;1910357;71;21597;-74
2021/10/25 00:40:02;;;;;;;14.80;10.15;;;23.90;95.80;;;;;;1962334;70;21132;-76
2021/10/25 00:42:33;;;;;;;13.93;9.78;;;23.90;95.80;;;;;;1952103;71;21254;-75
2021/10/25 00:45:05;;;;;;;16.73;10.45;;;24.00;95.70;;;;;;1912555;73;21589;-74
2021/10/25 00:47:36;;;;;;;13.72;11.18;;;24.00;94.90;;;;;;1886162;73;21153;-74
2021/10/25 00:50:08;;;;;;;12.90;9.65;;;24.10;95.00;;;;;;1888926;73;21697;-75
2021/10/25 00:52:41;;;;;;;11.15;9.03;;;24.10;94.70;;;;;;1948752;71;21150;-75
2021/10/25 00:55:12;;;;;;;10.80;9.13;;;24.10;94.60;;;;;;1926952;72;21169;-74
2021/10/25 00:57:43;;;;;;;12.15;9.93;;;24.10;94.50;;;;;;1881262;73;21213;-74
2021/10/25 01:00:14;;;;;;;14.03;10.43;;;24.20;94.40;;;;;;1964959;70;21099;-75
2021/10/25 01:02:46;;;;;;;14.05;10.25;;;24.20;94.50;;;;;;1891186;73;21142;-74
2021/10/25 01:05:18;;;;;;;13.22;10.20;;;24.20;94.40;;;;;;1875371;73;21625;-74
2021/10/25 01:07:50;;;;;;;15.20;10.85;;;24.20;94.50;;;;;;1937827;72;21713;-74
2021/10/25 01:10:21;;;;;;;12.75;9.50;;;24.30;94.40;;;;;;1881248;74;21223;-76
2021/10/25 01:12:53;;;;;;;13.45;9.05;;;24.40;94.20;;;;;;1936133;72;21665;-78
2021/10/25 01:15:25;;;;;;;10.38;8.90;;;24.40;93.90;;;;;;1918430;71;21319;-74
2021/10/25 01:17:58;;;;;;;11.10;9.33;;;24.50;93.70;;;;;;1863924;74;21567;-74
2021/10/25 01:20:31;;;;;;;10.60;8.68;;;24.60;93.40;;;;;;1870317;73;21206;-75
2021/10/25 01:23:04;;;;;;;11.53;9.35;;;24.60;93.30;;;;;;1897263;72;21713;-75
2021/10/25 01:25:36;;;;;;;13.68;9.45;;;24.60;93.30;;;;;;1883589;74;21244;-74
2021/10/25 01:28:07;;;;;;;10.55;9.43;;;24.70;93.20;;;;;;1923809;72;21614;-74
2021/10/25 01:30:38;;;;;;;13.08;9.20;;;24.70;93.10;;;;;;1940826;72;21611;-75
2021/10/25 01:33:11;;;;;;;11.40;8.88;;;24.80;93.00;;;;;;1963371;71;21140;-74
2021/10/25 01:35:43;;;;;;;14.55;9.55;;;24.80;92.70;;;;;;1943083;71;21196;-75
2021/10/25 01:38:14;;;;;;;12.43;9.55;;;24.80;92.80;;;;;;1958275;70;21565;-75
2021/10/25 01:40:45;;;;;;;11.43;8.90;;;24.80;92.90;;;;;;1961147;71;22085;-74
2021/10/25 01:43:19;;;;;;;12.65;9.23;;;24.80;93.00;;;;;;1934431;71;21550;-74
2021/10/25 01:45:50;;;;;;;13.68;9.38;;;24.90;92.90;;;;;;1936362;71;21204;-75
2021/10/25 01:48:21;;;;;;;11.85;9.65;;;24.90;92.80;;;;;;1923652;70;21164;-74
2021/10/25 01:50:51;;;;;;;10.85;9.38;;;25.00;93.10;;;;;;1940929;71;21159;-75
2021/10/25 01:53:22;;;;;;;14.35;9.55;;;25.00;93.10;;;;;;1961392;71;21170;-75
2021/10/25 01:55:59;;;;;;;10.53;8.95;;;25.10;93.00;;;;;;1946690;71;21125;-75
2021/10/25 01:58:26;;;;;;;11.18;9.10;;;25.10;92.70;;;;;;1913467;72;21180;-76
2021/10/25 02:00:57;;;;;;;11.75;9.03;;;25.20;92.60;;;;;;1927108;72;21206;-76
2021/10/25 02:03:29;;;;;;;10.70;8.65;;;25.30;92.30;;;;;;1901222;73;21155;-76
2021/10/25 02:05:59;;;;;;;11.68;9.03;;;25.30;92.30;;;;;;1867284;73;21244;-76
2021/10/25 02:08:30;;;;;;;10.10;8.78;;;25.30;91.90;;;;;;1882477;74;21743;-74
2021/10/25 02:11:01;;;;;;;11.28;8.65;;;25.30;92.20;;;;;;1880318;74;21748;-75
2021/10/25 02:13:32;;;;;;;11.10;8.85;;;25.30;92.30;;;;;;1892400;74;21646;-74
2021/10/25 02:16:04;;;;;;;11.43;8.55;;;25.30;92.20;;;;;;1860813;74;21080;-75
2021/10/25 02:18:35;;;;;;;10.95;8.95;;;25.40;92.30;;;;;;1939936;71;21204;-74
2021/10/25 02:21:06;;;;;;;10.08;8.68;;;25.40;92.50;;;;;;1933104;71;21189;-78
2021/10/25 02:23:37;;;;;;;13.28;8.05;;;25.50;92.30;;;;;;1945763;70;21563;-76
2021/10/25 02:26:09;;;;;;;10.40;8.58;;;25.60;92.00;;;;;;1911154;72;21530;-77
2021/10/25 02:28:40;;;;;;;11.93;8.13;;;25.70;92.20;;;;;;1892058;73;21071;-77
2021/10/25 02:31:11;;;;;;;9.53;8.10;;;25.80;91.90;;;;;;1914638;73;21166;-74
2021/10/25 02:33:42;;;;;;;9.73;8.25;;;25.80;91.50;;;;;;1887659;73;21089;-74
2021/10/25 02:36:14;;;;;;;11.08;8.63;;;25.90;91.80;;;;;;1901165;73;21178;-76
2021/10/25 02:38:45;;;;;;;10.30;8.05;;;26.00;91.20;;;;;;1871337;74;21708;-75
2021/10/25 02:41:16;;;;;;;10.38;8.80;;;26.10;91.20;;;;;;1883388;74;21755;-75
2021/10/25 02:43:47;;;;;;;10.05;8.70;;;26.20;91.20;;;;;;1917629;72;21576;-74
2021/10/25 02:46:18;;;;;;;12.18;9.55;;;26.20;90.90;;;;;;1942964;72;21155;-75
2021/10/25 02:48:49;;;;;;;12.03;8.23;;;26.20;91.00;;;;;;1943789;71;21510;-75
2021/10/25 02:51:19;;;;;;;9.78;8.15;;;26.30;90.90;;;;;;1953470;72;21737;-74
2021/10/25 02:53:50;;;;;;;10.58;8.73;;;26.30;90.60;;;;;;1920470;70;21730;-75
2021/10/25 02:56:22;;;;;;;8.45;7.22;;;26.40;90.70;;;;;;1939687;71;21068;-74
2021/10/25 02:58:52;;;;;;;9.73;7.72;;;26.50;90.00;;;;;;1932657;71;21594;-75
2021/10/25 03:01:23;;;;;;;9.45;7.55;;;26.60;89.60;;;;;;1946043;71;21736;-74
2021/10/25 03:03:54;;;;;;;9.08;7.40;;;26.70;89.00;;;;;;1950823;72;21888;-73
2021/10/25 03:06:25;;;;;;;12.05;8.35;;;26.80;88.70;;;;;;1909857;72;21173;-74
2021/10/25 03:08:56;;;;;;;12.58;7.42;;;26.80;88.70;;;;;;1928427;72;21166;-73
2021/10/25 03:11:28;;;;;;;10.63;7.67;;;26.90;88.70;;;;;;1938214;72;21142;-73
2021/10/25 03:13:59;;;;;;;8.48;7.58;;;27.00;88.70;;;;;;1939815;71;21222;-74
2021/10/25 03:16:30;;;;;;;9.00;6.85;;;27.10;88.30;;;;;;1948637;71;21147;-73
2021/10/25 03:19:01;;;;;;;9.23;7.05;;;27.20;87.80;;;;;;1903477;71;21211;-73
2021/10/25 03:21:33;;;;;;;8.63;6.62;;;27.40;86.90;;;;;;1909033;73;21216;-73
2021/10/25 03:24:04;;;;;;;7.62;6.33;;;27.50;85.90;;;;;;1925803;73;21204;-73
2021/10/25 03:26:35;;;;;;;8.33;6.62;;;27.60;85.50;;;;;;1926429;72;21146;-74
2021/10/25 03:29:06;;;;;;;9.80;7.83;;;27.70;84.30;;;;;;1932039;73;21618;-73
2021/10/25 03:31:37;;;;;;;9.38;7.20;;;27.80;84.40;;;;;;1921273;73;21093;-74
2021/10/25 03:34:07;;;;;;;7.53;6.40;;;27.90;84.00;;;;;;1943990;71;21192;-73
2021/10/25 03:36:40;;;;;;;8.10;6.47;;;28.10;82.60;;;;;;1947255;72;21232;-73
2021/10/25 03:39:10;;;;;;;7.37;6.00;;;28.10;83.00;;;;;;1912468;72;21090;-74
2021/10/25 03:41:46;;;;;;;8.20;6.60;;;28.20;82.50;;;;;;1878048;75;21204;-73
2021/10/25 03:44:42;;;;;;;7.10;6.12;;;28.30;82.50;;;;;;1935353;72;21619;-74
2021/10/25 03:46:51;;;;;;;8.70;6.12;;;28.40;82.30;;;;;;1933313;71;21327;-73
2021/10/25 03:51:51;;;;;;;8.50;6.35;;;28.60;82.30;;;;;;1930706;72;21127;-74
2021/10/25 03:54:36;;;;;;;8.08;6.00;;;28.70;81.20;;;;;;1936141;71;21072;-74
2021/10/25 04:27:28;;;;;;;9.33;5.90;;;29.70;75.70;;;;;;1880177;73;23070;-74
2021/10/25 04:30:01;;;;;;;7.20;5.40;;;29.70;75.80;;;;;;1878655;73;21045;-74
2021/10/25 04:32:24;;;;;;;7.90;5.33;;;29.80;75.30;;;;;;1890678;73;21121;-74
2021/10/25 04:34:55;;;;;;;7.85;5.87;;;29.80;76.00;;;;;;1914585;71;21163;-73
2021/10/25 04:37:25;;;;;;;6.87;5.05;;;29.90;76.30;;;;;;1908974;73;21292;-75
2021/10/25 04:39:56;;;;;;;6.45;5.20;;;29.90;74.80;;;;;;1893121;73;21142;-74
2021/10/25 04:42:27;;;;;;;24.82;18.05;;;29.90;75.10;;;;;;1880449;75;21121;-75
2021/10/25 04:44:58;;;;;;;16.02;12.82;;;30.00;74.90;;;;;;1891002;74;21192;-75
2021/10/25 04:47:29;;;;;;;8.00;6.00;;;30.00;78.50;;;;;;1874379;74;21598;-75
2021/10/25 04:50:00;;;;;;;6.75;4.50;;;30.10;82.10;;;;;;1944129;71;21071;-75
2021/10/25 04:52:31;;;;;;;7.47;4.92;;;30.20;81.00;;;;;;1933638;71;21325;-74
2021/10/25 04:55:03;;;;;;;6.65;5.47;;;30.20;78.50;;;;;;1951454;73;21254;-73
2021/10/25 04:57:34;;;;;;;8.48;5.00;;;30.20;81.30;;;;;;1877472;73;21174;-74
2021/10/25 05:00:06;;;;;;;6.30;4.80;;;30.40;92.10;;;;;;1884849;74;21216;-74
2021/10/25 05:02:38;;;;;;;6.47;4.62;;;30.30;80.80;;;;;;1856174;73;21170;-73
2021/10/25 05:05:10;;;;;;;8.28;5.97;;;30.50;81.10;;;;;;1868229;73;21139;-74
2021/10/25 05:07:41;;;;;;;9.85;5.37;;;30.40;85.50;;;;;;1873104;74;21150;-74
2021/10/25 05:10:11;;;;;;;8.85;5.60;;;30.30;87.20;;;;;;1889811;73;21177;-75
2021/10/25 05:12:42;;;;;;;7.67;4.72;;;30.40;89.70;;;;;;1869672;74;21111;-75
2021/10/25 05:15:13;;;;;;;6.33;5.40;;;;;;;;;;1901600;73;21231;-74
2021/10/25 05:17:43;;;;;;;6.70;5.00;;;;;;;;;;1890442;73;21155;-75
2021/10/25 05:20:14;;;;;;;7.45;5.97;;;30.50;72.30;;;;;;1921498;72;21190;-74
2021/10/25 05:22:45;;;;;;;7.85;4.90;;;30.50;72.90;;;;;;1951743;71;21272;-74
2021/10/25 05:25:15;;;;;;;8.33;5.87;;;30.40;73.10;;;;;;1919410;72;21212;-76
2021/10/25 05:27:46;;;;;;;6.75;4.67;;;30.40;73.10;;;;;;1918253;73;21303;-75
2021/10/25 05:30:17;;;;;;;6.20;5.15;;;30.50;73.20;;;;;;1916204;72;21651;-75
2021/10/25 05:32:49;;;;;;;6.55;5.08;;;30.60;73.60;;;;;;1938758;72;21153;-75
2021/10/25 05:35:20;;;;;;;5.15;4.20;;;30.60;72.80;;;;;;1923852;73;21147;-76
2021/10/25 05:37:51;;;;;;;6.75;5.53;;;30.60;73.30;;;;;;1871758;74;21423;-76
2021/10/25 05:40:22;;;;;;;7.67;5.28;;;30.60;72.60;;;;;;1886702;73;21794;-77
2021/10/25 05:42:53;;;;;;;8.40;5.12;;;30.60;72.20;;;;;;1891148;74;21632;-77
2021/10/25 05:45:24;;;;;;;7.40;5.90;;;30.70;71.80;;;;;;1899526;73;21272;-75
2021/10/25 05:47:55;;;;;;;6.22;5.08;;;30.80;72.00;;;;;;1882472;73;21103;-75
2021/10/25 05:50:26;;;;;;;7.72;5.00;;;30.80;70.90;;;;;;1882357;74;21061;-75
2021/10/25 05:52:57;;;;;;;5.87;4.30;;;30.80;70.60;;;;;;1862697;74;21677;-75
2021/10/25 05:55:29;;;;;;;5.87;4.80;;;30.80;71.20;;;;;;1893524;73;21716;-75
2021/10/25 05:58:00;;;;;;;6.33;4.45;;;30.90;71.40;;;;;;1862983;74;21248;-75
2021/10/25 06:00:35;;;;;;;6.78;4.75;;;30.90;71.30;;;;;;1858776;74;21640;-75
2021/10/25 06:03:03;;;;;;;4.92;4.37;;;30.90;71.30;;;;;;1852810;74;21095;-78
2021/10/25 06:05:37;;;;;;;7.85;4.85;;;30.90;71.10;;;;;;1871519;74;21099;-79
2021/10/25 06:08:13;;;;;;;7.30;5.28;;;30.90;72.00;;;;;;1855478;74;21146;-78
2021/10/25 06:10:48;;;;;;;6.05;4.55;;;30.80;71.20;;;;;;1858690;75;21127;-77
2021/10/25 06:13:23;;;;;;;7.05;4.30;;;30.90;71.00;;;;;;1856283;74;21189;-78
2021/10/25 06:15:56;;;;;;;6.08;4.72;;;30.80;70.90;;;;;;1840779;75;21573;-77
2021/10/25 06:18:19;;;;;;;8.50;4.85;;;30.70;70.60;;;;;;1854348;74;21131;-77
2021/10/25 06:20:51;;;;;;;6.03;4.40;;;30.80;70.30;;;;;;1868919;75;21616;-79
2021/10/25 06:23:22;;;;;;;6.37;4.42;;;30.90;71.00;;;;;;1864129;74;21178;-79
2021/10/25 06:25:52;;;;;;;5.10;4.40;;;30.90;70.20;;;;;;1860413;74;21160;-78
2021/10/25 06:28:28;;;;;;;5.83;4.30;;;30.90;70.10;;;;;;1862328;75;21405;-80
2021/10/25 06:31:02;;;;;;;7.28;4.78;;;31.00;69.40;;;;;;1877010;75;21146;-76
2021/10/25 06:33:41;;;;;;;5.85;4.67;;;;;;;;;;1886563;73;21792;-77
2021/10/25 06:36:07;;;;;;;7.90;4.97;;;31.10;68.90;;;;;;1897920;73;21095;-73
2021/10/25 06:38:43;;;;;;;6.05;4.45;;;31.10;69.70;;;;;;1853836;75;21214;-75
2021/10/25 06:41:10;;;;;;;6.20;4.37;;;31.10;69.30;;;;;;1919319;72;21883;-74
2021/10/25 06:43:41;;;;;;;6.75;4.60;;;31.00;69.10;;;;;;1920784;72;21682;-76
2021/10/25 06:46:13;;;;;;;7.47;4.60;;;31.00;68.90;;;;;;1919896;72;21133;-75
2021/10/25 06:48:44;;;;;;;5.67;4.10;;;31.10;69.40;;;;;;1915359;72;21277;-76
2021/10/25 06:51:14;;;;;;;6.42;4.47;;;31.10;68.50;;;;;;1870680;73;21600;-75
2021/10/25 06:53:46;;;;;;;6.45;4.50;;;31.10;69.00;;;;;;1887499;73;21159;-74
2021/10/25 06:56:16;;;;;;;5.83;4.33;;;31.10;69.50;;;;;;1891721;73;21539;-74
2021/10/25 06:58:48;;;;;;;5.65;4.40;;;31.00;68.40;;;;;;1937667;72;21133;-75
2021/10/25 07:01:20;;;;;;;5.28;4.50;;;31.00;68.60;;;;;;1916058;72;21128;-75
2021/10/25 07:03:52;;;;;;;8.03;4.80;;;31.00;69.00;;;;;;1875446;73;21736;-75
2021/10/25 07:06:29;;;;;;;4.70;4.20;;;31.10;69.40;;;;;;1887333;72;21202;-75
2021/10/25 07:09:01;;;;;;;7.12;5.10;;;31.00;69.10;;;;;;1908300;73;21633;-73
2021/10/25 07:11:31;;;;;;;5.55;4.55;;;30.90;69.00;;;;;;1873627;74;21147;-74
2021/10/25 07:14:03;;;;;;;6.40;4.83;;;30.90;69.30;;;;;;1892639;73;21677;-74
2021/10/25 07:16:40;;;;;;;7.50;4.75;;;30.90;69.70;;;;;;1869226;74;21710;-75
2021/10/25 07:27:09;;;;;;;6.60;5.00;;;30.90;70.00;;;;;;1848844;75;21696;-73
2021/10/25 08:09:55;;;;;;;6.80;4.75;;;30.40;70.40;;;;;;1894452;73;21150;-73
2021/10/25 08:12:28;;;;;;;6.95;4.87;;;30.30;71.30;;;;;;1836288;75;21210;-73
2021/10/25 08:15:02;;;;;;;6.87;4.83;;;30.30;71.40;;;;;;1884729;73;21499;-73
2021/10/25 08:17:41;;;;;;;6.72;4.78;;;30.40;71.50;;;;;;1904343;73;21338;-74
2021/10/25 08:20:05;;;;;;;6.30;4.55;;;30.30;72.00;;;;;;1902457;73;21620;-74
2021/10/25 08:22:35;;;;;;;5.20;4.12;;;30.30;72.20;;;;;;1926654;72;21552;-73
2021/10/25 08:25:07;;;;;;;6.58;5.20;;;30.30;72.20;;;;;;1908732;73;21162;-73
2021/10/25 08:27:39;;;;;;;5.95;4.37;;;30.30;71.50;;;;;;1875009;75;21177;-73
2021/10/25 08:30:12;;;;;;;5.58;4.47;;;30.20;71.80;;;;;;1866938;74;21142;-74
2021/10/25 08:32:59;;;;;;;5.08;4.40;;;30.20;72.00;;;;;;1877717;73;21184;-74
2021/10/25 08:40:18;;;;;;;5.53;4.17;;;30.10;71.70;;;;;;1902601;72;21186;-73
2021/10/25 08:42:49;;;;;;;7.12;4.40;;;30.10;71.50;;;;;;1911869;72;21268;-74
2021/10/25 08:45:29;;;;;;;6.25;4.47;;;30.30;72.10;;;;;;1907550;73;21205;-73
2021/10/25 08:47:53;;;;;;;6.35;4.40;;;30.20;72.30;;;;;;1929893;72;21547;-74
2021/10/25 08:50:26;;;;;;;10.75;5.65;;;30.20;72.60;;;;;;1925376;73;21178;-75
2021/10/25 08:52:58;;;;;;;9.00;4.55;;;30.10;72.50;;;;;;1931060;73;21266;-76
2021/10/25 08:55:30;;;;;;;7.17;4.72;;;30.10;72.60;;;;;;1927551;73;21144;-74
2021/10/25 08:58:06;;;;;;;10.15;4.62;;;30.00;72.80;;;;;;1907059;73;21633;-74
2021/10/25 09:00:38;;;;;;;8.88;5.15;;;30.00;73.30;;;;;;1894504;73;21680;-73
2021/10/25 09:03:09;;;;;;;7.12;4.92;;;29.90;73.80;;;;;;1850198;76;21593;-74
2021/10/25 09:05:40;;;;;;;8.68;5.17;;;29.90;74.20;;;;;;1900764;73;21143;-73
2021/10/25 09:08:12;;;;;;;4.90;4.30;;;29.90;74.10;;;;;;1900159;73;21106;-74
2021/10/25 09:10:45;;;;;;;9.25;4.95;;;29.80;73.80;;;;;;1868071;74;21189;-74
2021/10/25 09:13:18;;;;;;;8.15;5.37;;;29.70;74.30;;;;;;1871589;72;21144;-73
2021/10/25 09:15:51;;;;;;;7.05;4.95;;;29.80;74.40;;;;;;1879574;73;21159;-74
2021/10/25 09:18:35;;;;;;;9.35;5.35;;;29.70;74.50;;;;;;1860484;74;21191;-73
2021/10/25 09:21:13;;;;;;;5.35;4.40;;;29.70;74.50;;;;;;1921107;72;21146;-74
2021/10/25 09:23:44;;;;;;;9.93;4.87;;;29.70;74.80;;;;;;1910987;72;21569;-73
2021/10/25 09:26:17;;;;;;;6.22;4.60;;;29.70;75.10;;;;;;1935459;71;21675;-73
2021/10/25 09:28:52;;;;;;;6.20;4.78;;;29.60;74.30;;;;;;1902259;72;21070;-74
2021/10/25 09:31:29;;;;;;;6.10;4.42;;;29.60;74.80;;;;;;1915778;72;21670;-76
2021/10/25 09:34:02;;;;;;;6.50;5.05;;;29.60;74.70;;;;;;1906282;72;21636;-74
2021/10/25 09:36:37;;;;;;;6.62;4.95;;;29.60;74.60;;;;;;1924401;71;21973;-74
2021/10/25 09:39:22;;;;;;;6.50;4.78;;;29.60;74.70;;;;;;1926843;70;21093;-74
2021/10/25 09:41:54;;;;;;;8.70;4.83;;;29.50;74.50;;;;;;1919503;72;21786;-74
2021/10/25 09:49:28;;;;;;;8.20;5.58;;;29.50;74.90;;;;;;1924814;72;21163;-74
2021/10/25 09:52:00;;;;;;;5.95;5.10;;;29.50;75.30;;;;;;1924608;71;21587;-74
2021/10/25 09:54:33;;;;;;;11.93;7.67;;;29.50;75.40;;;;;;1924942;72;21213;-74
2021/10/25 09:57:09;;;;;;;7.17;5.20;;;29.40;75.70;;;;;;1925855;71;21158;-74
2021/10/25 10:02:14;;;;;;;7.00;5.37;;;29.40;76.00;;;;;;1917452;72;21214;-73
2021/10/25 10:04:46;;;;;;;7.72;6.47;;;29.40;76.30;;;;;;1931875;71;21166;-73
2021/10/25 10:07:18;;;;;;;8.45;5.60;;;29.30;76.20;;;;;;1940157;71;21648;-73
2021/10/25 10:09:50;;;;;;;8.33;6.17;;;29.30;76.10;;;;;;1917228;72;21151;-73
2021/10/25 10:12:23;;;;;;;8.93;5.05;;;29.30;76.20;;;;;;1949060;71;21164;-72
2021/10/25 10:14:57;;;;;;;8.08;5.47;;;29.30;76.60;;;;;;1981698;69;22311;-74
2021/10/25 10:17:30;;;;;;;8.58;5.10;;;29.30;76.50;;;;;;1917621;72;21266;-72
2021/10/25 10:20:04;;;;;;;7.47;5.35;;;29.20;76.50;;;;;;1978289;70;21242;-73
2021/10/25 10:22:37;;;;;;;8.33;5.75;;;29.20;76.90;;;;;;1990130;68;21520;-73
2021/10/25 10:25:09;;;;;;;9.30;5.78;;;29.10;77.00;;;;;;1970849;69;21663;-73
2021/10/25 10:27:40;;;;;;;8.33;5.72;;;29.20;77.40;;;;;;1979439;70;21126;-72
2021/10/25 10:30:11;;;;;;;8.83;5.78;;;29.10;77.70;;;;;;1982614;70;21076;-73
2021/10/25 10:32:43;;;;;;;8.35;5.62;;;29.10;78.10;;;;;;1967002;71;21101;-73
2021/10/25 10:35:17;;;;;;;8.60;5.90;;;29.10;78.20;;;;;;1939161;71;21939;-73
2021/10/25 10:37:48;;;;;;;9.18;6.87;;;29.00;78.70;;;;;;1953565;71;21535;-73
2021/10/25 10:40:22;;;;;;;8.05;6.30;;;29.00;78.80;;;;;;1936670;72;21576;-73
2021/10/25 10:42:54;;;;;;;9.73;6.42;;;29.00;78.90;;;;;;1952689;71;21194;-73
2021/10/25 10:45:26;;;;;;;10.43;6.20;;;29.00;79.30;;;;;;1943744;71;21713;-74
2021/10/25 10:48:01;;;;;;;8.45;6.50;;;28.90;79.00;;;;;;1937406;72;21609;-73
2021/10/25 10:53:11;;;;;;;12.13;6.87;;;28.90;79.50;;;;;;1975460;70;21095;-73
2021/10/25 10:55:51;;;;;;;9.55;7.40;;;28.80;79.60;;;;;;1990878;69;21102;-74
2021/10/25 11:00:49;;;;;;;10.53;7.15;;;28.80;80.30;;;;;;1993116;69;21227;-74
2021/10/25 11:03:22;;;;;;;8.30;6.92;;;28.80;80.60;;;;;;1968799;69;21347;-73
2021/10/25 11:05:59;;;;;;;10.70;8.23;;;28.80;80.90;;;;;;1964307;71;21185;-73
2021/10/25 11:08:30;;;;;;;10.40;7.70;;;28.70;81.00;;;;;;1951762;71;21103;-73
2021/10/25 11:11:04;;;;;;;13.45;8.20;;;28.70;81.30;;;;;;1981766;69;21121;-74
2021/10/25 11:13:41;;;;;;;11.83;8.78;;;28.60;81.70;;;;;;1993524;69;21242;-73
2021/10/25 11:18:51;;;;;;;14.65;8.80;;;28.60;81.70;;;;;;1976666;69;21154;-72
2021/10/25 11:21:20;;;;;;;14.98;9.30;;;28.60;81.90;;;;;;1986957;69;21141;-71
2021/10/25 11:23:54;;;;;;;15.10;9.65;;;28.60;82.00;;;;;;1957150;70;21174;-73
2021/10/25 11:26:27;;;;;;;15.38;9.53;;;28.60;82.40;;;;;;1980229;69;21100;-73
2021/10/25 11:28:59;;;;;;;13.43;8.85;;;28.50;82.50;;;;;;1983165;69;21732;-73
2021/10/25 11:31:31;;;;;;;20.70;13.15;;;28.50;82.50;;;;;;1994746;69;21210;-74
2021/10/25 11:34:06;;;;;;;18.62;13.05;;;28.50;82.90;;;;;;1984785;70;21173;-74
2021/10/25 11:36:39;;;;;;;16.55;11.70;;;28.40;83.00;;;;;;1974573;69;21730;-75
2021/10/25 11:39:10;;;;;;;18.48;12.75;;;28.40;83.00;;;;;;1963674;69;21056;-73
2021/10/25 11:41:43;;;;;;;16.35;11.68;;;28.40;83.10;;;;;;1963432;70;21158;-74
2021/10/25 11:44:17;;;;;;;22.35;11.88;;;28.40;83.10;;;;;;1973796;69;21163;-74
2021/10/25 11:46:49;;;;;;;19.57;11.75;;;28.40;83.20;;;;;;1975402;69;21183;-74
2021/10/25 11:49:22;;;;;;;16.05;11.38;;;28.40;83.30;;;;;;1949855;70;21193;-74
2021/10/25 11:51:59;;;;;;;16.75;11.73;;;28.30;83.30;;;;;;1961746;70;21786;-74
2021/10/25 11:54:30;;;;;;;18.73;11.73;;;28.30;83.30;;;;;;1978392;69;21272;-73
2021/10/25 11:57:02;;;;;;;13.80;10.58;;;28.30;83.30;;;;;;1956815;70;21109;-73
2021/10/25 11:59:33;;;;;;;17.45;12.50;;;28.30;83.60;;;;;;1951322;71;21066;-73
2021/10/25 12:02:06;;;;;;;18.02;12.70;;;28.30;83.80;;;;;;1964993;69;21603;-73
2021/10/25 12:04:41;;;;;;;15.70;11.28;;;28.30;83.80;;;;;;1979866;69;21898;-72
2021/10/25 12:07:15;;;;;;;19.55;14.38;;;28.30;84.10;;;;;;2000352;69;21193;-74
2021/10/25 12:09:46;;;;;;;17.92;13.30;;;28.30;84.10;;;;;;1990326;70;21115;-74
2021/10/25 12:12:19;;;;;;;18.75;11.75;;;28.20;84.10;;;;;;1968996;71;21610;-74
2021/10/25 12:14:58;;;;;;;17.35;12.60;;;28.20;83.90;;;;;;1972284;69;21662;-71
2021/10/25 12:17:31;;;;;;;17.05;12.65;;;28.20;83.70;;;;;;1965100;69;21602;-76
2021/10/25 12:20:04;;;;;;;18.05;12.80;;;28.20;83.90;;;;;;1938971;70;21134;-76
2021/10/25 12:22:42;;;;;;;18.12;12.53;;;28.20;84.10;;;;;;1982561;69;21240;-74
2021/10/25 12:25:12;;;;;;;18.90;12.73;;;28.10;84.00;;;;;;1968449;69;21130;-73
2021/10/25 12:28:00;;;;;;;28.87;13.30;;;28.10;84.20;;;;;;1976764;70;21979;-75
2021/10/25 12:30:31;;;;;;;19.70;12.88;;;28.10;84.30;;;;;;1958806;69;21184;-75
2021/10/25 12:33:04;;;;;;;18.98;13.13;;;28.10;84.60;;;;;;1933129;71;21554;-75
2021/10/25 12:35:41;;;;;;;19.92;13.50;;;28.10;84.60;;;;;;1953674;72;21596;-74
2021/10/25 12:38:19;;;;;;;18.67;13.72;;;28.10;84.80;;;;;;1955919;70;21211;-75
2021/10/25 12:40:49;;;;;;;20.80;13.38;;;28.00;85.00;;;;;;1887435;74;21194;-74
2021/10/25 12:43:22;;;;;;;18.52;13.98;;;28.00;85.20;;;;;;1937188;71;21138;-74
2021/10/25 12:45:55;;;;;;;18.37;13.93;;;27.90;85.30;;;;;;1913776;73;21160;-75
2021/10/25 12:48:26;;;;;;;21.95;15.63;;;27.90;85.50;;;;;;1927328;71;21938;-75
2021/10/25 12:51:00;;;;;;;18.92;14.07;;;27.90;85.80;;;;;;1996602;70;21611;-77
2021/10/25 12:53:32;;;;;;;21.42;15.32;;;27.90;86.00;;;;;;1974684;69;21132;-82
2021/10/25 12:56:05;;;;;;;19.75;14.25;;;27.80;86.20;;;;;;1965606;69;21084;-81
2021/10/25 12:58:36;;;;;;;23.40;14.40;;;27.80;86.20;;;;;;1904549;73;21806;-84
2021/10/25 13:01:11;;;;;;;20.10;14.07;;;27.80;86.10;;;;;;1911698;72;21163;-82
2021/10/25 13:03:45;;;;;;;23.60;15.38;;;27.80;86.40;;;;;;1927548;71;21236;-82
2021/10/25 13:06:17;;;;;;;21.42;15.32;;;27.80;86.50;;;;;;1920624;72;21700;-82
2021/10/25 13:08:49;;;;;;;21.85;15.88;;;27.80;86.60;;;;;;1914053;71;21092;-82
2021/10/25 13:11:21;;;;;;;23.15;16.42;;;27.80;86.80;;;;;;1920118;72;21115;-82
2021/10/25 13:13:57;;;;;;;23.02;16.07;;;27.70;87.10;;;;;;1935090;71;21038;-84
2021/10/25 13:19:04;;;;;;;21.87;15.63;;;27.70;87.70;;;;;;1912880;71;21598;-83
2021/10/25 13:21:36;;;;;;;26.02;17.85;;;27.70;88.10;;;;;;1934169;72;21634;-81
2021/10/25 13:24:09;;;;;;;22.90;16.62;;;27.60;88.20;;;;;;1931251;72;21479;-82
2021/10/25 13:26:42;;;;;;;25.08;17.10;;;27.60;88.20;;;;;;1885026;73;21605;-83
2021/10/25 13:29:14;;;;;;;24.18;16.87;;;27.60;88.50;;;;;;1893746;72;21151;-81
2021/10/25 13:31:45;;;;;;;22.30;17.07;;;27.60;88.80;;;;;;1913016;72;21244;-81
2021/10/25 13:34:18;;;;;;;27.25;17.60;;;27.60;88.50;;;;;;1920504;72;21152;-82
2021/10/25 13:36:49;;;;;;;25.60;17.17;;;27.60;88.80;;;;;;1907891;72;21432;-81
2021/10/25 13:39:21;;;;;;;23.77;16.97;;;27.60;88.80;;;;;;1983001;69;21716;-82
2021/10/25 13:41:55;;;;;;;24.87;17.17;;;27.60;89.00;;;;;;2003686;69;21128;-82
2021/10/25 13:44:27;;;;;;;25.68;17.48;;;27.60;88.90;;;;;;1989088;69;21224;-82
2021/10/25 13:46:59;;;;;;;24.95;17.45;;;27.60;88.90;;;;;;1984013;69;21487;-82
2021/10/25 13:49:30;;;;;;;26.62;18.00;;;27.50;89.80;;;;;;1989592;69;21127;-82
2021/10/25 13:52:01;;;;;;;26.15;18.42;;;27.50;89.40;;;;;;1944264;71;21205;-81
2021/10/25 13:54:32;;;;;;;25.25;18.17;;;27.50;88.90;;;;;;1928139;70;21227;-82
2021/10/25 13:57:08;;;;;;;29.77;19.40;;;27.50;88.90;;;;;;1930291;72;21743;-80
2021/10/25 13:59:38;;;;;;;25.92;17.37;;;27.50;88.80;;;;;;1948365;71;21567;-83
2021/10/25 14:02:13;;;;;;;29.32;18.00;;;27.50;89.00;;;;;;1898898;73;21140;-81
2021/10/25 14:04:47;;;;;;;23.42;15.48;;;27.50;89.10;;;;;;1943577;70;21157;-80
2021/10/25 14:07:21;;;;;;;27.05;17.65;;;27.50;88.90;;;;;;1997097;69;21261;-82
2021/10/25 14:09:59;;;;;;;22.65;16.48;;;27.50;89.00;;;;;;1941480;69;21993;-81
2021/10/25 14:12:27;;;;;;;23.73;17.10;;;27.50;88.90;;;;;;1970539;69;21215;-80
2021/10/25 14:15:07;;;;;;;22.35;16.10;;;27.50;89.00;;;;;;1949702;69;21208;-84
2021/10/25 14:17:35;;;;;;;21.60;16.35;;;27.40;88.90;;;;;;1957372;70;21234;-80
2021/10/25 14:20:07;;;;;;;23.40;16.37;;;27.40;88.80;;;;;;1987382;70;21174;-82
2021/10/25 14:22:43;;;;;;;20.40;16.70;;;27.40;88.90;;;;;;1996275;70;21195;-82
2021/10/25 14:25:14;;;;;;;24.75;17.57;;;27.40;89.30;;;;;;1983290;69;21234;-81
2021/10/25 14:27:48;;;;;;;27.05;17.25;;;27.40;89.30;;;;;;1977491;70;21142;-83
2021/10/25 14:30:27;;;;;;;22.32;16.77;;;27.40;89.30;;;;;;1986076;70;21643;-81
2021/10/25 14:33:00;;;;;;;24.10;16.93;;;27.40;89.00;;;;;;1984089;71;21179;-81
2021/10/25 14:35:31;;;;;;;22.52;16.87;;;27.30;88.80;;;;;;1967004;69;21127;-81
2021/10/25 14:38:07;;;;;;;21.65;16.77;;;27.30;88.60;;;;;;2014800;69;21632;-80
2021/10/25 14:41:21;;;;;;;23.47;17.20;;;27.30;88.60;;;;;;1986404;69;21262;-81
2021/10/25 14:43:14;;;;;;;23.12;16.65;;;27.30;88.80;;;;;;1919822;72;21173;-81
2021/10/25 14:45:45;;;;;;;25.30;17.32;;;27.30;88.80;;;;;;1925858;72;21114;-81
2021/10/25 14:48:23;;;;;;;24.20;17.05;;;27.30;88.80;;;;;;1941781;72;21159;-81